sensor_id;sensor_type;location;lat;lon;timestamp;P1;durP1;ratioP1;P2;durP2;ratioP2
5416;SDS011;2731;50.754;12.990;2023-06-22T00:00:31;17.20;;;10.98;;
5416;SDS011;2731;50.754;12.990;2023-06-22T00:02:57;10.77;;;9.60;;
5416;SDS011;2731;50.754;12.990;2023-06-22T00:05:23;11.55;;;10.35;;
5416;SDS011;2731;50.754;12.990;2023-06-22T00:07:49;12.40;;;9.93;;
5416;SDS011;2731;50.754;12.990;2023-06-22T00:10:15;10.65;;;9.50;;
5416;SDS011;2731;50.754;12.990;2023-06-22T00:12:41;11.20;;;9.93;;
5416;SDS011;2731;50.754;12.990;2023-06-22T00:15:07;11.30;;;10.07;;
5416;SDS011;2731;50.754;12.990;2023-06-22T00:17:33;17.45;;;10.50;;
5416;SDS011;2731;50.754;12.990;2023-06-22T00:19:59;10.77;;;9.68;;
5416;SDS011;2731;50.754;12.990;2023-06-22T00:22:25;14.77;;;9.90;;
5416;SDS011;2731;50.754;12.990;2023-06-22T00:24:55;12.35;;;9.13;;
5416;SDS011;2731;50.754;12.990;2023-06-22T00:27:21;10.50;;;9.45;;
5416;SDS011;2731;50.754;12.990;2023-06-22T00:29:47;11.73;;;10.43;;
5416;SDS011;2731;50.754;12.990;2023-06-22T00:32:13;13.90;;;9.93;;
5416;SDS011;2731;50.754;12.990;2023-06-22T00:34:39;13.68;;;9.70;;
5416;SDS011;2731;50.754;12.990;2023-06-22T00:37:05;11.95;;;10.38;;
5416;SDS011;2731;50.754;12.990;2023-06-22T00:39:31;11.20;;;9.98;;
5416;SDS011;2731;50.754;12.990;2023-06-22T00:41:59;11.77;;;10.57;;
5416;SDS011;2731;50.754;12.990;2023-06-22T00:44:25;12.50;;;9.45;;
5416;SDS011;2731;50.754;12.990;2023-06-22T00:46:51;11.68;;;10.48;;
5416;SDS011;2731;50.754;12.990;2023-06-22T00:49:18;13.32;;;10.88;;
5416;SDS011;2731;50.754;12.990;2023-06-22T00:51:44;12.10;;;10.45;;
5416;SDS011;2731;50.754;12.990;2023-06-22T00:54:12;14.55;;;11.13;;
5416;SDS011;2731;50.754;12.990;2023-06-22T00:56:39;12.95;;;10.20;;
5416;SDS011;2731;50.754;12.990;2023-06-22T00:59:06;10.52;;;9.43;;
5416;SDS011;2731;50.754;12.990;2023-06-22T01:01:32;15.00;;;11.07;;
5416;SDS011;2731;50.754;12.990;2023-06-22T01:03:59;14.02;;;10.75;;
5416;SDS011;2731;50.754;12.990;2023-06-22T01:06:26;11.45;;;10.02;;
5416;SDS011;2731;50.754;12.990;2023-06-22T01:09:00;10.95;;;9.45;;
5416;SDS011;2731;50.754;12.990;2023-06-22T01:11:37;13.18;;;10.52;;
5416;SDS011;2731;50.754;12.990;2023-06-22T01:17:06;13.20;;;9.80;;
5416;SDS011;2731;50.754;12.990;2023-06-22T01:21:59;11.82;;;9.95;;
5416;SDS011;2731;50.754;12.990;2023-06-22T01:24:27;10.68;;;9.45;;
5416;SDS011;2731;50.754;12.990;2023-06-22T01:27:01;12.70;;;10.52;;
5416;SDS011;2731;50.754;12.990;2023-06-22T01:29:31;12.77;;;10.45;;
5416;SDS011;2731;50.754;12.990;2023-06-22T01:31:58;11.93;;;10.18;;
5416;SDS011;2731;50.754;12.990;2023-06-22T01:34:25;11.50;;;10.15;;
5416;SDS011;2731;50.754;12.990;2023-06-22T01:36:51;13.00;;;10.68;;
5416;SDS011;2731;50.754;12.990;2023-06-22T01:39:18;12.82;;;11.35;;
5416;SDS011;2731;50.754;12.990;2023-06-22T01:41:44;12.43;;;10.70;;
5416;SDS011;2731;50.754;12.990;2023-06-22T01:44:10;11.07;;;9.93;;
5416;SDS011;2731;50.754;12.990;2023-06-22T01:46:37;12.45;;;10.68;;
5416;SDS011;2731;50.754;12.990;2023-06-22T01:49:04;12.38;;;10.48;;
5416;SDS011;2731;50.754;12.990;2023-06-22T01:51:30;11.43;;;9.88;;
5416;SDS011;2731;50.754;12.990;2023-06-22T01:53:57;12.50;;;10.40;;
5416;SDS011;2731;50.754;12.990;2023-06-22T01:56:23;12.65;;;10.45;;
5416;SDS011;2731;50.754;12.990;2023-06-22T01:59:12;12.15;;;10.10;;
5416;SDS011;2731;50.754;12.990;2023-06-22T02:01:38;12.27;;;10.98;;
5416;SDS011;2731;50.754;12.990;2023-06-22T02:04:09;11.33;;;9.93;;
5416;SDS011;2731;50.754;12.990;2023-06-22T02:06:37;11.50;;;9.85;;
5416;SDS011;2731;50.754;12.990;2023-06-22T02:09:12;13.80;;;10.57;;
5416;SDS011;2731;50.754;12.990;2023-06-22T02:11:40;15.23;;;10.80;;
5416;SDS011;2731;50.754;12.990;2023-06-22T02:14:07;13.38;;;10.38;;
5416;SDS011;2731;50.754;12.990;2023-06-22T02:16:33;11.30;;;9.98;;
5416;SDS011;2731;50.754;12.990;2023-06-22T02:19:00;11.43;;;10.20;;
5416;SDS011;2731;50.754;12.990;2023-06-22T02:21:31;14.55;;;10.60;;
5416;SDS011;2731;50.754;12.990;2023-06-22T02:23:57;13.68;;;9.98;;
5416;SDS011;2731;50.754;12.990;2023-06-22T02:26:24;14.45;;;10.75;;
5416;SDS011;2731;50.754;12.990;2023-06-22T02:28:51;13.68;;;10.50;;
5416;SDS011;2731;50.754;12.990;2023-06-22T02:31:17;14.70;;;11.07;;
5416;SDS011;2731;50.754;12.990;2023-06-22T02:33:43;11.88;;;10.35;;
5416;SDS011;2731;50.754;12.990;2023-06-22T02:36:10;12.60;;;10.23;;
5416;SDS011;2731;50.754;12.990;2023-06-22T02:38:38;13.07;;;9.20;;
5416;SDS011;2731;50.754;12.990;2023-06-22T02:41:04;10.73;;;9.63;;
5416;SDS011;2731;50.754;12.990;2023-06-22T02:43:31;13.23;;;10.55;;
5416;SDS011;2731;50.754;12.990;2023-06-22T02:45:57;13.30;;;9.93;;
5416;SDS011;2731;50.754;12.990;2023-06-22T02:48:23;12.00;;;9.73;;
5416;SDS011;2731;50.754;12.990;2023-06-22T02:50:49;10.70;;;9.60;;
5416;SDS011;2731;50.754;12.990;2023-06-22T02:53:16;13.05;;;9.85;;
5416;SDS011;2731;50.754;12.990;2023-06-22T02:55:42;10.15;;;9.13;;
5416;SDS011;2731;50.754;12.990;2023-06-22T02:58:08;10.98;;;9.48;;
5416;SDS011;2731;50.754;12.990;2023-06-22T03:00:34;11.77;;;9.52;;
5416;SDS011;2731;50.754;12.990;2023-06-22T03:03:00;14.10;;;9.70;;
5416;SDS011;2731;50.754;12.990;2023-06-22T03:05:26;11.63;;;9.63;;
5416;SDS011;2731;50.754;12.990;2023-06-22T03:07:52;10.82;;;9.32;;
5416;SDS011;2731;50.754;12.990;2023-06-22T03:10:18;15.55;;;8.57;;
5416;SDS011;2731;50.754;12.990;2023-06-22T03:12:44;12.93;;;10.00;;
5416;SDS011;2731;50.754;12.990;2023-06-22T03:15:10;10.18;;;9.10;;
5416;SDS011;2731;50.754;12.990;2023-06-22T03:17:37;10.85;;;9.50;;
5416;SDS011;2731;50.754;12.990;2023-06-22T03:20:07;10.77;;;8.70;;
5416;SDS011;2731;50.754;12.990;2023-06-22T03:22:40;14.27;;;9.27;;
5416;SDS011;2731;50.754;12.990;2023-06-22T03:25:07;12.07;;;8.77;;
5416;SDS011;2731;50.754;12.990;2023-06-22T03:27:38;9.93;;;8.50;;
5416;SDS011;2731;50.754;12.990;2023-06-22T03:30:07;12.35;;;8.55;;
5416;SDS011;2731;50.754;12.990;2023-06-22T03:32:33;11.32;;;8.70;;
5416;SDS011;2731;50.754;12.990;2023-06-22T03:34:59;9.93;;;8.50;;
5416;SDS011;2731;50.754;12.990;2023-06-22T03:37:26;10.90;;;8.88;;
5416;SDS011;2731;50.754;12.990;2023-06-22T03:39:52;10.23;;;9.15;;
5416;SDS011;2731;50.754;12.990;2023-06-22T03:42:18;13.35;;;9.85;;
5416;SDS011;2731;50.754;12.990;2023-06-22T03:44:44;10.60;;;9.27;;
5416;SDS011;2731;50.754;12.990;2023-06-22T03:47:10;10.38;;;9.27;;
5416;SDS011;2731;50.754;12.990;2023-06-22T03:49:36;10.63;;;9.15;;
5416;SDS011;2731;50.754;12.990;2023-06-22T03:52:02;15.15;;;10.45;;
5416;SDS011;2731;50.754;12.990;2023-06-22T03:54:29;12.65;;;9.55;;
5416;SDS011;2731;50.754;12.990;2023-06-22T03:56:59;11.25;;;8.63;;
5416;SDS011;2731;50.754;12.990;2023-06-22T03:59:25;12.52;;;9.98;;
5416;SDS011;2731;50.754;12.990;2023-06-22T04:01:51;11.93;;;9.43;;
5416;SDS011;2731;50.754;12.990;2023-06-22T04:04:17;12.68;;;9.57;;
5416;SDS011;2731;50.754;12.990;2023-06-22T04:06:45;11.98;;;9.30;;
5416;SDS011;2731;50.754;12.990;2023-06-22T04:09:11;12.10;;;9.07;;
5416;SDS011;2731;50.754;12.990;2023-06-22T04:11:37;10.63;;;8.95;;
5416;SDS011;2731;50.754;12.990;2023-06-22T04:14:04;12.57;;;9.85;;
5416;SDS011;2731;50.754;12.990;2023-06-22T04:16:30;14.88;;;9.55;;
5416;SDS011;2731;50.754;12.990;2023-06-22T04:18:56;10.75;;;8.50;;
5416;SDS011;2731;50.754;12.990;2023-06-22T04:21:22;9.60;;;8.52;;
5416;SDS011;2731;50.754;12.990;2023-06-22T04:23:48;11.07;;;9.18;;
5416;SDS011;2731;50.754;12.990;2023-06-22T04:26:14;10.23;;;8.52;;
5416;SDS011;2731;50.754;12.990;2023-06-22T04:28:41;9.38;;;8.48;;
5416;SDS011;2731;50.754;12.990;2023-06-22T04:31:07;11.75;;;9.00;;
5416;SDS011;2731;50.754;12.990;2023-06-22T04:33:33;11.02;;;8.98;;
5416;SDS011;2731;50.754;12.990;2023-06-22T04:35:59;10.38;;;9.27;;
5416;SDS011;2731;50.754;12.990;2023-06-22T04:38:26;8.93;;;7.70;;
5416;SDS011;2731;50.754;12.990;2023-06-22T04:40:52;10.68;;;8.23;;
5416;SDS011;2731;50.754;12.990;2023-06-22T04:43:19;10.27;;;9.18;;
5416;SDS011;2731;50.754;12.990;2023-06-22T04:45:45;11.75;;;10.00;;
5416;SDS011;2731;50.754;12.990;2023-06-22T04:48:11;10.98;;;9.32;;
5416;SDS011;2731;50.754;12.990;2023-06-22T04:50:41;10.40;;;8.80;;
5416;SDS011;2731;50.754;12.990;2023-06-22T04:53:07;10.65;;;9.00;;
5416;SDS011;2731;50.754;12.990;2023-06-22T04:55:34;11.00;;;9.77;;
5416;SDS011;2731;50.754;12.990;2023-06-22T04:58:03;11.77;;;9.30;;
5416;SDS011;2731;50.754;12.990;2023-06-22T05:00:32;10.77;;;8.68;;
5416;SDS011;2731;50.754;12.990;2023-06-22T05:03:01;10.43;;;9.32;;
5416;SDS011;2731;50.754;12.990;2023-06-22T05:05:28;11.38;;;9.25;;
5416;SDS011;2731;50.754;12.990;2023-06-22T05:07:56;10.68;;;9.55;;
5416;SDS011;2731;50.754;12.990;2023-06-22T05:10:25;11.35;;;9.43;;
5416;SDS011;2731;50.754;12.990;2023-06-22T05:12:51;11.23;;;9.98;;
5416;SDS011;2731;50.754;12.990;2023-06-22T05:15:17;12.27;;;9.55;;
5416;SDS011;2731;50.754;12.990;2023-06-22T05:17:51;11.32;;;9.40;;
5416;SDS011;2731;50.754;12.990;2023-06-22T05:20:17;10.75;;;9.52;;
5416;SDS011;2731;50.754;12.990;2023-06-22T05:22:43;11.25;;;9.45;;
5416;SDS011;2731;50.754;12.990;2023-06-22T05:25:10;9.25;;;8.18;;
5416;SDS011;2731;50.754;12.990;2023-06-22T05:27:37;11.65;;;8.57;;
5416;SDS011;2731;50.754;12.990;2023-06-22T05:30:07;9.63;;;8.63;;
5416;SDS011;2731;50.754;12.990;2023-06-22T05:32:33;11.85;;;8.35;;
5416;SDS011;2731;50.754;12.990;2023-06-22T05:35:00;10.43;;;8.20;;
5416;SDS011;2731;50.754;12.990;2023-06-22T05:37:26;8.85;;;7.95;;
5416;SDS011;2731;50.754;12.990;2023-06-22T05:39:52;11.77;;;8.15;;
5416;SDS011;2731;50.754;12.990;2023-06-22T05:42:19;9.75;;;8.40;;
5416;SDS011;2731;50.754;12.990;2023-06-22T05:44:45;9.52;;;8.48;;
5416;SDS011;2731;50.754;12.990;2023-06-22T05:47:12;28.25;;;22.00;;
5416;SDS011;2731;50.754;12.990;2023-06-22T05:49:38;64.88;;;48.80;;
5416;SDS011;2731;50.754;12.990;2023-06-22T05:52:04;158.35;;;106.55;;
5416;SDS011;2731;50.754;12.990;2023-06-22T05:54:30;86.32;;;56.80;;
5416;SDS011;2731;50.754;12.990;2023-06-22T05:56:56;103.30;;;65.30;;
5416;SDS011;2731;50.754;12.990;2023-06-22T05:59:22;123.88;;;82.18;;
5416;SDS011;2731;50.754;12.990;2023-06-22T06:01:49;55.05;;;38.90;;
5416;SDS011;2731;50.754;12.990;2023-06-22T06:04:18;52.30;;;33.92;;
5416;SDS011;2731;50.754;12.990;2023-06-22T06:06:45;44.55;;;32.10;;
5416;SDS011;2731;50.754;12.990;2023-06-22T06:09:12;40.30;;;28.55;;
5416;SDS011;2731;50.754;12.990;2023-06-22T06:11:38;28.45;;;21.35;;
5416;SDS011;2731;50.754;12.990;2023-06-22T06:14:04;20.77;;;16.65;;
5416;SDS011;2731;50.754;12.990;2023-06-22T06:16:31;18.70;;;14.25;;
5416;SDS011;2731;50.754;12.990;2023-06-22T06:18:57;11.23;;;9.77;;
5416;SDS011;2731;50.754;12.990;2023-06-22T06:21:23;13.30;;;9.10;;
5416;SDS011;2731;50.754;12.990;2023-06-22T06:23:49;9.93;;;8.95;;
5416;SDS011;2731;50.754;12.990;2023-06-22T06:26:16;9.55;;;8.18;;
5416;SDS011;2731;50.754;12.990;2023-06-22T06:28:45;8.90;;;8.07;;
5416;SDS011;2731;50.754;12.990;2023-06-22T06:31:11;9.98;;;8.85;;
5416;SDS011;2731;50.754;12.990;2023-06-22T06:33:42;13.98;;;8.70;;
5416;SDS011;2731;50.754;12.990;2023-06-22T06:36:08;10.15;;;8.65;;
5416;SDS011;2731;50.754;12.990;2023-06-22T06:38:34;11.32;;;9.02;;
5416;SDS011;2731;50.754;12.990;2023-06-22T06:41:00;9.68;;;8.05;;
5416;SDS011;2731;50.754;12.990;2023-06-22T06:43:26;12.73;;;8.57;;
5416;SDS011;2731;50.754;12.990;2023-06-22T06:45:52;9.68;;;8.07;;
5416;SDS011;2731;50.754;12.990;2023-06-22T06:48:18;8.35;;;7.55;;
5416;SDS011;2731;50.754;12.990;2023-06-22T06:50:44;10.02;;;7.95;;
5416;SDS011;2731;50.754;12.990;2023-06-22T06:53:11;8.57;;;7.63;;
5416;SDS011;2731;50.754;12.990;2023-06-22T06:55:37;9.40;;;6.75;;
5416;SDS011;2731;50.754;12.990;2023-06-22T06:58:03;7.35;;;6.57;;
5416;SDS011;2731;50.754;12.990;2023-06-22T07:00:32;7.72;;;6.93;;
5416;SDS011;2731;50.754;12.990;2023-06-22T07:02:58;9.40;;;7.43;;
5416;SDS011;2731;50.754;12.990;2023-06-22T07:05:24;9.25;;;7.68;;
5416;SDS011;2731;50.754;12.990;2023-06-22T07:07:50;7.38;;;6.57;;
5416;SDS011;2731;50.754;12.990;2023-06-22T07:10:18;13.40;;;9.13;;
5416;SDS011;2731;50.754;12.990;2023-06-22T07:12:44;8.18;;;7.32;;
5416;SDS011;2731;50.754;12.990;2023-06-22T07:15:11;8.27;;;7.47;;
5416;SDS011;2731;50.754;12.990;2023-06-22T07:17:37;7.32;;;6.57;;
5416;SDS011;2731;50.754;12.990;2023-06-22T07:20:07;7.68;;;6.88;;
5416;SDS011;2731;50.754;12.990;2023-06-22T07:22:44;8.80;;;7.55;;
5416;SDS011;2731;50.754;12.990;2023-06-22T07:25:10;7.90;;;7.10;;
5416;SDS011;2731;50.754;12.990;2023-06-22T07:27:39;8.02;;;7.22;;
5416;SDS011;2731;50.754;12.990;2023-06-22T07:30:07;8.02;;;7.00;;
5416;SDS011;2731;50.754;12.990;2023-06-22T07:32:35;7.75;;;6.95;;
5416;SDS011;2731;50.754;12.990;2023-06-22T07:35:01;7.18;;;6.47;;
5416;SDS011;2731;50.754;12.990;2023-06-22T07:37:29;9.50;;;6.88;;
5416;SDS011;2731;50.754;12.990;2023-06-22T07:39:55;8.77;;;7.88;;
5416;SDS011;2731;50.754;12.990;2023-06-22T07:42:25;8.23;;;6.82;;
5416;SDS011;2731;50.754;12.990;2023-06-22T07:44:51;8.75;;;7.10;;
5416;SDS011;2731;50.754;12.990;2023-06-22T07:47:17;8.32;;;7.53;;
5416;SDS011;2731;50.754;12.990;2023-06-22T07:49:44;7.85;;;6.53;;
5416;SDS011;2731;50.754;12.990;2023-06-22T07:52:10;7.80;;;7.05;;
5416;SDS011;2731;50.754;12.990;2023-06-22T07:54:37;9.95;;;8.10;;
5416;SDS011;2731;50.754;12.990;2023-06-22T07:57:03;7.38;;;6.65;;
5416;SDS011;2731;50.754;12.990;2023-06-22T07:59:30;6.85;;;6.15;;
5416;SDS011;2731;50.754;12.990;2023-06-22T08:01:56;8.05;;;6.55;;
5416;SDS011;2731;50.754;12.990;2023-06-22T08:04:22;6.82;;;6.10;;
5416;SDS011;2731;50.754;12.990;2023-06-22T08:06:49;7.00;;;6.30;;
5416;SDS011;2731;50.754;12.990;2023-06-22T08:09:15;8.55;;;7.00;;
5416;SDS011;2731;50.754;12.990;2023-06-22T08:11:41;7.30;;;6.45;;
5416;SDS011;2731;50.754;12.990;2023-06-22T08:14:07;6.82;;;6.13;;
5416;SDS011;2731;50.754;12.990;2023-06-22T08:16:33;7.65;;;6.80;;
5416;SDS011;2731;50.754;12.990;2023-06-22T08:18:59;7.03;;;6.32;;
5416;SDS011;2731;50.754;12.990;2023-06-22T08:21:26;6.97;;;6.30;;
5416;SDS011;2731;50.754;12.990;2023-06-22T08:23:54;7.15;;;6.45;;
5416;SDS011;2731;50.754;12.990;2023-06-22T08:26:20;8.02;;;6.70;;
5416;SDS011;2731;50.754;12.990;2023-06-22T08:28:46;7.13;;;5.90;;
5416;SDS011;2731;50.754;12.990;2023-06-22T08:31:12;6.53;;;5.82;;
5416;SDS011;2731;50.754;12.990;2023-06-22T08:33:39;6.43;;;5.82;;
5416;SDS011;2731;50.754;12.990;2023-06-22T08:36:05;6.40;;;5.80;;
5416;SDS011;2731;50.754;12.990;2023-06-22T08:38:33;13.77;;;6.82;;
5416;SDS011;2731;50.754;12.990;2023-06-22T08:40:59;6.95;;;6.25;;
5416;SDS011;2731;50.754;12.990;2023-06-22T08:43:26;7.10;;;6.40;;
5416;SDS011;2731;50.754;12.990;2023-06-22T08:45:54;6.95;;;5.90;;
5416;SDS011;2731;50.754;12.990;2023-06-22T08:48:21;7.95;;;6.53;;
5416;SDS011;2731;50.754;12.990;2023-06-22T08:50:48;6.60;;;5.93;;
5416;SDS011;2731;50.754;12.990;2023-06-22T08:53:15;6.88;;;6.28;;
5416;SDS011;2731;50.754;12.990;2023-06-22T08:55:42;7.70;;;6.72;;
5416;SDS011;2731;50.754;12.990;2023-06-22T08:58:08;7.68;;;6.53;;
5416;SDS011;2731;50.754;12.990;2023-06-22T09:00:34;8.85;;;6.53;;
5416;SDS011;2731;50.754;12.990;2023-06-22T09:03:01;7.85;;;6.68;;
5416;SDS011;2731;50.754;12.990;2023-06-22T09:05:27;7.75;;;6.40;;
5416;SDS011;2731;50.754;12.990;2023-06-22T09:07:53;6.97;;;6.07;;
5416;SDS011;2731;50.754;12.990;2023-06-22T09:10:24;9.55;;;6.75;;
5416;SDS011;2731;50.754;12.990;2023-06-22T09:12:50;7.20;;;6.45;;
5416;SDS011;2731;50.754;12.990;2023-06-22T09:15:16;7.30;;;6.55;;
5416;SDS011;2731;50.754;12.990;2023-06-22T09:17:42;7.22;;;6.47;;
5416;SDS011;2731;50.754;12.990;2023-06-22T09:20:08;7.35;;;6.50;;
5416;SDS011;2731;50.754;12.990;2023-06-22T09:22:36;8.73;;;7.05;;
5416;SDS011;2731;50.754;12.990;2023-06-22T09:25:04;10.50;;;7.18;;
5416;SDS011;2731;50.754;12.990;2023-06-22T09:27:30;9.88;;;6.80;;
5416;SDS011;2731;50.754;12.990;2023-06-22T09:29:56;6.85;;;6.15;;
5416;SDS011;2731;50.754;12.990;2023-06-22T09:32:23;7.68;;;6.55;;
5416;SDS011;2731;50.754;12.990;2023-06-22T09:34:50;7.55;;;6.47;;
5416;SDS011;2731;50.754;12.990;2023-06-22T09:37:16;6.95;;;6.22;;
5416;SDS011;2731;50.754;12.990;2023-06-22T09:39:45;7.38;;;6.57;;
5416;SDS011;2731;50.754;12.990;2023-06-22T09:42:11;9.55;;;7.07;;
5416;SDS011;2731;50.754;12.990;2023-06-22T09:44:38;7.45;;;6.65;;
5416;SDS011;2731;50.754;12.990;2023-06-22T09:47:04;8.43;;;6.82;;
5416;SDS011;2731;50.754;12.990;2023-06-22T09:49:30;7.78;;;6.47;;
5416;SDS011;2731;50.754;12.990;2023-06-22T09:51:57;8.75;;;6.97;;
5416;SDS011;2731;50.754;12.990;2023-06-22T09:54:23;7.45;;;6.75;;
5416;SDS011;2731;50.754;12.990;2023-06-22T09:56:49;9.95;;;7.25;;
5416;SDS011;2731;50.754;12.990;2023-06-22T09:59:15;8.18;;;6.28;;
5416;SDS011;2731;50.754;12.990;2023-06-22T10:01:41;7.05;;;6.35;;
5416;SDS011;2731;50.754;12.990;2023-06-22T10:04:07;8.05;;;5.85;;
5416;SDS011;2731;50.754;12.990;2023-06-22T10:06:34;8.52;;;6.75;;
5416;SDS011;2731;50.754;12.990;2023-06-22T10:09:00;8.48;;;6.32;;
5416;SDS011;2731;50.754;12.990;2023-06-22T10:11:26;8.75;;;7.47;;
5416;SDS011;2731;50.754;12.990;2023-06-22T10:13:55;9.10;;;6.85;;
5416;SDS011;2731;50.754;12.990;2023-06-22T10:16:23;10.00;;;6.30;;
5416;SDS011;2731;50.754;12.990;2023-06-22T10:18:52;6.35;;;5.60;;
5416;SDS011;2731;50.754;12.990;2023-06-22T10:21:18;7.55;;;6.32;;
5416;SDS011;2731;50.754;12.990;2023-06-22T10:23:44;7.78;;;5.90;;
5416;SDS011;2731;50.754;12.990;2023-06-22T10:26:10;8.82;;;5.97;;
5416;SDS011;2731;50.754;12.990;2023-06-22T10:28:36;9.68;;;6.53;;
5416;SDS011;2731;50.754;12.990;2023-06-22T10:31:02;8.50;;;7.60;;
5416;SDS011;2731;50.754;12.990;2023-06-22T10:33:28;8.70;;;7.80;;
5416;SDS011;2731;50.754;12.990;2023-06-22T10:35:54;8.65;;;6.55;;
5416;SDS011;2731;50.754;12.990;2023-06-22T10:38:20;9.13;;;6.60;;
5416;SDS011;2731;50.754;12.990;2023-06-22T10:40:46;9.75;;;6.60;;
5416;SDS011;2731;50.754;12.990;2023-06-22T10:43:12;7.47;;;6.68;;
5416;SDS011;2731;50.754;12.990;2023-06-22T10:45:38;8.05;;;6.22;;
5416;SDS011;2731;50.754;12.990;2023-06-22T10:48:04;8.85;;;7.55;;
5416;SDS011;2731;50.754;12.990;2023-06-22T10:50:30;7.95;;;7.15;;
5416;SDS011;2731;50.754;12.990;2023-06-22T10:52:57;7.28;;;6.05;;
5416;SDS011;2731;50.754;12.990;2023-06-22T10:55:23;12.82;;;6.30;;
5416;SDS011;2731;50.754;12.990;2023-06-22T10:57:49;10.57;;;6.35;;
5416;SDS011;2731;50.754;12.990;2023-06-22T11:00:15;6.18;;;5.45;;
5416;SDS011;2731;50.754;12.990;2023-06-22T11:02:41;7.65;;;6.38;;
5416;SDS011;2731;50.754;12.990;2023-06-22T11:05:07;7.05;;;6.28;;
5416;SDS011;2731;50.754;12.990;2023-06-22T11:07:34;9.18;;;7.60;;
5416;SDS011;2731;50.754;12.990;2023-06-22T11:10:00;6.28;;;5.68;;
5416;SDS011;2731;50.754;12.990;2023-06-22T11:12:26;10.55;;;6.18;;
5416;SDS011;2731;50.754;12.990;2023-06-22T11:14:52;7.18;;;6.35;;
5416;SDS011;2731;50.754;12.990;2023-06-22T11:17:18;7.97;;;7.03;;
5416;SDS011;2731;50.754;12.990;2023-06-22T11:19:44;8.32;;;6.28;;
5416;SDS011;2731;50.754;12.990;2023-06-22T11:22:11;7.18;;;6.25;;
5416;SDS011;2731;50.754;12.990;2023-06-22T11:24:37;8.85;;;6.32;;
5416;SDS011;2731;50.754;12.990;2023-06-22T11:27:03;7.63;;;6.57;;
5416;SDS011;2731;50.754;12.990;2023-06-22T11:29:29;9.77;;;6.10;;
5416;SDS011;2731;50.754;12.990;2023-06-22T11:31:56;9.73;;;6.50;;
5416;SDS011;2731;50.754;12.990;2023-06-22T11:34:22;6.93;;;6.25;;
5416;SDS011;2731;50.754;12.990;2023-06-22T11:36:48;9.60;;;6.53;;
5416;SDS011;2731;50.754;12.990;2023-06-22T11:39:14;7.47;;;6.78;;
5416;SDS011;2731;50.754;12.990;2023-06-22T11:41:40;6.88;;;5.93;;
5416;SDS011;2731;50.754;12.990;2023-06-22T11:44:07;8.07;;;6.00;;
5416;SDS011;2731;50.754;12.990;2023-06-22T11:46:33;6.68;;;6.07;;
5416;SDS011;2731;50.754;12.990;2023-06-22T11:48:59;7.10;;;6.35;;
5416;SDS011;2731;50.754;12.990;2023-06-22T11:51:45;7.72;;;6.28;;
5416;SDS011;2731;50.754;12.990;2023-06-22T11:54:11;10.43;;;6.75;;
5416;SDS011;2731;50.754;12.990;2023-06-22T11:56:40;7.03;;;6.32;;
5416;SDS011;2731;50.754;12.990;2023-06-22T11:59:06;7.13;;;6.00;;
5416;SDS011;2731;50.754;12.990;2023-06-22T12:01:33;8.18;;;6.28;;
5416;SDS011;2731;50.754;12.990;2023-06-22T12:03:59;7.20;;;6.38;;
5416;SDS011;2731;50.754;12.990;2023-06-22T12:06:25;6.57;;;5.88;;
5416;SDS011;2731;50.754;12.990;2023-06-22T12:08:51;7.05;;;6.13;;
5416;SDS011;2731;50.754;12.990;2023-06-22T12:11:18;7.60;;;6.10;;
5416;SDS011;2731;50.754;12.990;2023-06-22T12:13:44;7.05;;;6.35;;
5416;SDS011;2731;50.754;12.990;2023-06-22T12:16:10;8.32;;;7.53;;
5416;SDS011;2731;50.754;12.990;2023-06-22T12:18:37;10.73;;;7.60;;
5416;SDS011;2731;50.754;12.990;2023-06-22T12:21:03;8.13;;;7.32;;
5416;SDS011;2731;50.754;12.990;2023-06-22T12:23:29;9.30;;;7.25;;
5416;SDS011;2731;50.754;12.990;2023-06-22T12:25:55;10.82;;;7.03;;
5416;SDS011;2731;50.754;12.990;2023-06-22T12:28:21;7.63;;;6.90;;
5416;SDS011;2731;50.754;12.990;2023-06-22T12:30:48;8.32;;;7.03;;
5416;SDS011;2731;50.754;12.990;2023-06-22T12:33:14;8.35;;;7.40;;
5416;SDS011;2731;50.754;12.990;2023-06-22T12:35:40;8.23;;;7.15;;
5416;SDS011;2731;50.754;12.990;2023-06-22T12:38:07;10.45;;;7.45;;
5416;SDS011;2731;50.754;12.990;2023-06-22T12:40:35;9.30;;;7.72;;
5416;SDS011;2731;50.754;12.990;2023-06-22T12:43:03;7.85;;;7.10;;
5416;SDS011;2731;50.754;12.990;2023-06-22T12:45:29;9.70;;;8.00;;
5416;SDS011;2731;50.754;12.990;2023-06-22T12:47:58;11.15;;;7.85;;
5416;SDS011;2731;50.754;12.990;2023-06-22T12:50:24;8.82;;;6.93;;
5416;SDS011;2731;50.754;12.990;2023-06-22T12:52:51;9.27;;;7.50;;
5416;SDS011;2731;50.754;12.990;2023-06-22T12:55:17;9.40;;;7.35;;
5416;SDS011;2731;50.754;12.990;2023-06-22T12:57:43;7.88;;;7.10;;
5416;SDS011;2731;50.754;12.990;2023-06-22T13:00:09;9.27;;;7.88;;
5416;SDS011;2731;50.754;12.990;2023-06-22T13:02:36;8.23;;;7.45;;
5416;SDS011;2731;50.754;12.990;2023-06-22T13:05:02;7.97;;;7.18;;
5416;SDS011;2731;50.754;12.990;2023-06-22T13:07:30;7.95;;;6.63;;
5416;SDS011;2731;50.754;12.990;2023-06-22T13:09:56;10.15;;;7.13;;
5416;SDS011;2731;50.754;12.990;2023-06-22T13:12:22;7.65;;;6.88;;
5416;SDS011;2731;50.754;12.990;2023-06-22T13:14:48;8.23;;;7.35;;
5416;SDS011;2731;50.754;12.990;2023-06-22T13:17:14;10.85;;;7.32;;
5416;SDS011;2731;50.754;12.990;2023-06-22T13:19:41;8.27;;;7.45;;
5416;SDS011;2731;50.754;12.990;2023-06-22T13:22:29;7.55;;;6.60;;
5416;SDS011;2731;50.754;12.990;2023-06-22T13:24:55;7.53;;;6.72;;
5416;SDS011;2731;50.754;12.990;2023-06-22T13:27:22;9.35;;;7.10;;
5416;SDS011;2731;50.754;12.990;2023-06-22T13:29:48;7.60;;;6.45;;
5416;SDS011;2731;50.754;12.990;2023-06-22T13:32:14;10.90;;;7.53;;
5416;SDS011;2731;50.754;12.990;2023-06-22T13:34:40;7.80;;;7.10;;
5416;SDS011;2731;50.754;12.990;2023-06-22T13:37:06;8.90;;;6.57;;
5416;SDS011;2731;50.754;12.990;2023-06-22T13:39:32;7.43;;;6.70;;
5416;SDS011;2731;50.754;12.990;2023-06-22T13:41:58;7.63;;;6.82;;
5416;SDS011;2731;50.754;12.990;2023-06-22T13:44:24;8.63;;;6.82;;
5416;SDS011;2731;50.754;12.990;2023-06-22T13:46:54;7.80;;;6.30;;
5416;SDS011;2731;50.754;12.990;2023-06-22T13:49:20;7.40;;;6.63;;
5416;SDS011;2731;50.754;12.990;2023-06-22T13:51:47;8.27;;;6.93;;
5416;SDS011;2731;50.754;12.990;2023-06-22T13:54:13;7.75;;;6.88;;
5416;SDS011;2731;50.754;12.990;2023-06-22T13:56:39;9.07;;;6.63;;
5416;SDS011;2731;50.754;12.990;2023-06-22T13:59:05;7.32;;;6.35;;
5416;SDS011;2731;50.754;12.990;2023-06-22T14:01:35;10.80;;;6.55;;
5416;SDS011;2731;50.754;12.990;2023-06-22T14:04:02;8.80;;;7.10;;
5416;SDS011;2731;50.754;12.990;2023-06-22T14:06:28;7.15;;;6.45;;
5416;SDS011;2731;50.754;12.990;2023-06-22T14:08:54;7.75;;;7.05;;
5416;SDS011;2731;50.754;12.990;2023-06-22T14:11:20;8.98;;;7.75;;
5416;SDS011;2731;50.754;12.990;2023-06-22T14:13:47;8.43;;;6.78;;
5416;SDS011;2731;50.754;12.990;2023-06-22T14:16:14;8.82;;;6.45;;
5416;SDS011;2731;50.754;12.990;2023-06-22T14:18:40;9.57;;;6.70;;
5416;SDS011;2731;50.754;12.990;2023-06-22T14:21:06;8.18;;;6.35;;
5416;SDS011;2731;50.754;12.990;2023-06-22T14:23:32;10.63;;;6.47;;
5416;SDS011;2731;50.754;12.990;2023-06-22T14:25:59;8.45;;;6.88;;
5416;SDS011;2731;50.754;12.990;2023-06-22T14:28:25;10.18;;;6.55;;
5416;SDS011;2731;50.754;12.990;2023-06-22T14:30:51;9.70;;;6.38;;
5416;SDS011;2731;50.754;12.990;2023-06-22T14:33:17;8.85;;;6.05;;
5416;SDS011;2731;50.754;12.990;2023-06-22T14:35:43;7.03;;;6.18;;
5416;SDS011;2731;50.754;12.990;2023-06-22T14:38:09;6.55;;;5.95;;
5416;SDS011;2731;50.754;12.990;2023-06-22T14:40:35;12.48;;;6.72;;
5416;SDS011;2731;50.754;12.990;2023-06-22T14:43:01;7.72;;;6.60;;
5416;SDS011;2731;50.754;12.990;2023-06-22T14:45:27;10.82;;;6.80;;
5416;SDS011;2731;50.754;12.990;2023-06-22T14:47:53;9.40;;;6.35;;
5416;SDS011;2731;50.754;12.990;2023-06-22T14:50:20;7.57;;;6.72;;
5416;SDS011;2731;50.754;12.990;2023-06-22T14:52:47;11.13;;;7.63;;
5416;SDS011;2731;50.754;12.990;2023-06-22T14:55:13;7.43;;;6.72;;